• Join FlightAware (Why Join?)
  • Login
  • US Flag 
11:04PM EDT


 

Airport Tracker/Info


-or-


 

Live Flight TrackerFlight Track Log ✈ SWA303 ✈ 23-Apr-2013 ✈ KDEN - KIAD

Flight Track Log - Related Links

Times and Time Zones

All times are in EDT time to prevent confusion due to time zone crossing. See the SWA303 flight status page for this flight to view local times or setup timezone preferences in your user account.

Time Position Orientation Groundspeed Altitude Reporting Facility
EDT Latitude Longitude Course Direction KTS MPH feet Rate Location/Type
02:36PM 39.8833 -104.5500 90° East 213 245 7,300  Level Denver TRACON
02:37PM 39.8667 -104.4667 105° East 274 315 9,400 2,220 Climbing Denver TRACON
02:38PM 39.8833 -104.3500 79° East 327 376 12,000 2,820 Climbing Denver TRACON
02:39PM 39.8781 -104.2169 93° East 351 404 15,400 2,820 Climbing Denver Center
02:40PM 39.8794 -104.0789 89° East 380 437 17,800 2,520 Climbing Denver Center
02:41PM 39.8833 -103.6605 90° East  Level FlightAware Approximate
02:41PM 39.8803 -103.9208 90° East 407 468 20,700  Level Denver Center
02:42PM 39.8822 -103.7647 89° East 429 494 23,200 2,220 Climbing Denver Center
02:43PM 39.8986 -103.6078 82° East 440 506 25,300 1,920 Climbing Denver Center
02:44PM 39.9172 -103.4372 82° East 472 543 27,200 1,620 Climbing Denver Center
02:45PM 39.9375 -103.2589 82° East 491 565 28,700 1,440 Climbing Denver Center
02:46PM 39.9581 -103.0717 82° East 515 593 30,200 1,440 Climbing Denver Center
02:47PM 39.9825 -102.8450 82° East 537 618 31,700 1,380 Climbing Denver Center
02:48PM 40.0014 -102.6636 82° East 550 633 33,100 1,740 Climbing Denver Center
02:49PM 40.0114 -102.4458 86° East 539 620 35,400 1,560 Climbing Denver Center
02:50PM 40.0214 -102.2903 85° East 539 620 36,300 1,200 Climbing Denver Center
02:51PM 40.0347 -102.0417 86° East 538 619 38,000 1,080 Climbing Denver Center
02:52PM 40.0456 -101.8533 86° East 545 627 38,600 480 Climbing Denver Center
02:53PM 40.0572 -101.6339 86° East 547 629 39,000 120 Climbing Denver Center
02:54PM 40.0656 -101.4433 87° East 551 634 39,000  Level Denver Center
02:55PM 40.0772 -101.1917 86° East 548 631 39,000  Level Denver Center
02:56PM 40.0861 -101.0033 86° East 546 628 39,000  Level Denver Center
02:57PM 40.0956 -100.7853 87° East 542 624 39,000  Level Denver Center
02:58PM 40.1042 -100.5972 87° East 545 627 39,000  Level Denver Center
03:00PM 40.1125 -100.3792 87° East 542 624 39,000  Level Denver Center
03:01PM 40.1194 -100.1933 87° East 539 620 39,000  Level Denver Center
03:02PM 40.1272 -99.9739 87° East 543 625 39,000  Level Denver Center
03:03PM 40.1336 -99.7947 87° East 544 626 39,000  Level Denver Center
03:04PM 40.1406 -99.5989 87° East 542 624 39,000  Level Denver Center
03:05PM 40.1475 -99.3628 88° East 542 624 39,000  Level Denver Center
03:06PM 40.1533 -99.1658 88° East 543 625 39,000  Level Denver Center
03:07PM 40.1592 -98.9694 88° East 542 624 39,000  Level Denver Center
03:08PM 40.1636 -98.7719 88° East 544 626 39,000  Level Denver Center
03:09PM 40.1678 -98.5756 88° East 543 625 39,000  Level Denver Center
03:10PM 40.1725 -98.4194 88° East 543 625 39,000  Level Minneapolis Center
03:11PM 40.1769 -98.1839 89° East 542 624 39,000  Level Minneapolis Center
03:12PM 40.1814 -97.9881 88° East 541 623 39,000  Level Minneapolis Center
03:13PM 40.1842 -97.7911 89° East 543 625 39,000  Level Minneapolis Center
03:14PM 40.1869 -97.5939 89° East 544 626 39,000  Level Minneapolis Center
03:15PM 40.1908 -97.3589 89° East 540 621 39,000  Level Minneapolis Center
03:16PM 40.1933 -97.1714 89° East 541 623 39,000  Level Minneapolis Center
03:17PM 40.1956 -96.9786 89° East 537 618 39,000  Level Minneapolis Center
03:18PM 40.1967 -96.7847 90° East 535 616 39,000  Level Minneapolis Center
03:19PM 40.1983 -96.5894 89° East 538 619 39,000  Level Minneapolis Center
03:20PM 40.1994 -96.3961 90° East 536 617 39,000  Level Minneapolis Center
03:21PM 40.2000 -96.1661 90° East 532 612 39,000  Level Minneapolis Center
03:22PM 40.1992 -95.9744 90° East 531 611 39,000  Level Minneapolis Center
03:23PM 40.1986 -95.7806 90° East 534 615 39,000  Level Minneapolis Center
03:24PM 40.1975 -95.5875 90° East 534 615 39,000  Level Minneapolis Center
03:25PM 40.1967 -95.3956 90° East 531 611 39,000  Level Minneapolis Center
03:26PM 40.1933 -95.2008 91° East 535 616 39,000  Level Minneapolis Center
03:27PM 40.1922 -95.0053 90° East 539 620 39,000  Level Minneapolis Center
03:28PM 40.1881 -94.7717 91° East 539 620 39,000  Level Minneapolis Center
03:29PM 40.1856 -94.5756 91° East 540 621 39,000  Level Minneapolis Center
03:30PM 40.1825 -94.4014 91° East 540 621 39,000  Level Minneapolis Center
03:31PM 40.1775 -94.2647 93° East 540 621 39,000  Level Kansas City Center
03:32PM 40.1719 -94.0511 92° East 541 623 39,000  Level Kansas City Center
03:33PM 40.1667 -93.8569 92° East 540 621 39,000  Level Kansas City Center
03:34PM 40.1622 -93.6647 92° East 536 617 39,000  Level Kansas City Center
03:35PM 40.1578 -93.4733 92° East 532 612 39,000  Level Kansas City Center
03:36PM 40.1556 -93.2836 91° East 529 609 39,000  Level Kansas City Center
03:37PM 40.1500 -93.0917 92° East 533 613 39,000  Level Kansas City Center
03:38PM 40.1425 -92.8717 92° East 531 611 39,000  Level Kansas City Center
03:39PM 40.1361 -92.6850 93° East 533 613 39,000  Level Kansas City Center
03:40PM 40.1228 -92.4719 95° East 526 605 39,000  Level Kansas City Center
03:41PM 40.1092 -92.2978 96° East 535 616 39,000  Level Kansas City Center
03:42PM 40.0875 -92.0692 97° East 537 618 39,000  Level Kansas City Center
03:43PM 40.0703 -91.8783 97° East 534 615 39,000  Level Kansas City Center
03:44PM 40.0511 -91.6883 97° East 534 615 39,000 600 Level Kansas City Center
03:45PM 40.0336 -91.4997 97° East 531 611 40,300 840 Climbing Kansas City Center
03:46PM 40.0150 -91.3169 98° East 518 596 40,800 300 Climbing Kansas City Center
03:47PM 39.9961 -91.1300 97° East 520 598 41,000 60 Climbing Kansas City Center
03:48PM 39.9742 -90.9183 98° East 527 606 41,000  Level Kansas City Center
03:49PM 39.9553 -90.7294 97° East 528 608 41,000  Level Kansas City Center
03:50PM 39.9344 -90.5397 98° East 530 610 41,000  Level Kansas City Center
03:51PM 39.9150 -90.3519 98° East 528 608 41,000  Level Kansas City Center
03:52PM 39.8903 -90.1289 98° East 524 603 41,000  Level Kansas City Center
03:53PM 39.8694 -89.9422 98° East 523 602 41,000  Level Kansas City Center
03:55PM 39.8483 -89.7583 98° East 520 598 41,000  Level Kansas City Center
03:56PM 39.8389 -89.5714 94° East 521 600 41,000  Level Kansas City Center
03:57PM 39.8411 -89.3858 89° East 519 597 41,000  Level Kansas City Center
03:58PM 39.8419 -89.1994 90° East 518 596 41,000  Level Kansas City Center
03:59PM 39.8419 -88.9781 90° East 516 594 41,000  Level Kansas City Center
04:00PM 39.8428 -88.7936 90° East 514 592 41,000  Level Kansas City Center
04:01PM 39.8419 -88.6092 90° East 513 590 41,000  Level Kansas City Center
04:02PM 39.8444 -88.4250 89° East 510 587 41,000  Level Kansas City Center
04:03PM 39.8425 -88.2414 91° East 510 587 41,000  Level Kansas City Center
04:04PM 39.8403 -88.0217 91° East 508 585 41,000  Level Kansas City Center
04:04PM 39.8375 -87.9697 94° East 512 589 41,000  Level Indianapolis Center
04:05PM 39.8361 -87.7808 90° East 516 594 41,000  Level Indianapolis Center
04:06PM 39.8342 -87.5911 91° East 522 601 41,000  Level Indianapolis Center
04:07PM 39.8336 -87.4022 90° East 519 597 41,000  Level Indianapolis Center
04:08PM 39.8294 -87.1811 91° East 521 600 41,000  Level Indianapolis Center
04:09PM 39.8275 -86.9906 91° East 524 603 41,000  Level Indianapolis Center
04:10PM 39.8233 -86.7989 92° East 525 604 41,000  Level Indianapolis Center
04:11PM 39.8192 -86.6075 92° East 525 604 41,000  Level Indianapolis Center
04:12PM 39.8156 -86.4175 91° East 521 600 41,000  Level Indianapolis Center
04:13PM 39.8119 -86.2419 91° East 522 601 41,000  Level Indianapolis Center
04:14PM 39.8089 -86.0267 91° East 522 601 41,000  Level Indianapolis Center
04:16PM 39.8058 -85.8361 91° East 523 602 41,000  Level Indianapolis Center
04:17PM 39.8206 -85.6486 84° East 521 600 41,000  Level Indianapolis Center
04:18PM 39.8314 -85.4589 86° East 523 602 41,000  Level Indianapolis Center
04:19PM 39.8439 -85.2378 86° East 524 603 41,000  Level Indianapolis Center
04:20PM 39.8542 -85.0467 86° East 525 604 41,000  Level Indianapolis Center
04:21PM 39.8656 -84.8444 86° East 526 605 41,000  Level Indianapolis Center
04:22PM 39.8764 -84.6539 86° East 525 604 41,000  Level Indianapolis Center
04:23PM 39.8878 -84.4636 85° East 525 604 41,000  Level Indianapolis Center
04:24PM 39.8956 -84.2725 87° East 522 601 41,000  Level Indianapolis Center
04:25PM 39.9042 -84.0842 87° East 519 597 41,000  Level Indianapolis Center
04:27PM 39.9222 -83.7083 86° East 512 589 41,000 -180 Level Indianapolis Center
04:28PM 39.9322 -83.5058 86° East 512 589 40,600 -720 Descending Indianapolis Center
04:29PM 39.9400 -83.3239 87° East 515 593 39,600 -1,020 Descending Indianapolis Center
04:30PM 39.9483 -83.1344 87° East 516 594 38,600 -1,020 Descending Indianapolis Center
04:31PM 39.9553 -82.9453 87° East 517 595 37,600 -780 Descending Indianapolis Center
04:32PM 39.9636 -82.7239 87° East 519 597 37,000 -300 Descending Indianapolis Center
04:33PM 39.9700 -82.5353 87° East 519 597 37,000  Level Indianapolis Center
04:34PM 39.9764 -82.3458 87° East 518 596 37,000  Level Indianapolis Center
04:35PM 39.9819 -82.1553 88° East 521 600 37,000  Level Indianapolis Center
04:36PM 39.9875 -81.9644 88° East 522 601 37,000  Level Indianapolis Center
04:37PM 39.9933 -81.7700 88° East 524 603 37,000  Level Indianapolis Center
04:38PM 39.9989 -81.5797 88° East 523 602 37,000  Level Indianapolis Center
04:39PM 39.9903 -81.3575 93° East 527 606 37,000  Level Indianapolis Center
04:40PM 39.9450 -81.1697 107° East 533 613 37,000 -240 Level Indianapolis Center
04:41PM 39.8933 -80.9917 111° Southeast 523 602 36,600 -720 Descending Cleveland Center
04:42PM 39.8417 -80.8103 110° East 523 602 35,600 -960 Descending Cleveland Center
04:43PM 39.7900 -80.6289 110° East 534 615 34,700 -1,140 Descending Cleveland Center
04:44PM 39.7356 -80.4481 111° Southeast 534 615 33,400 -900 Descending Cleveland Center
04:45PM 39.6811 -80.2675 111° Southeast 529 609 33,000 -240 Descending Cleveland Center
04:46PM 39.6283 -80.0872 111° Southeast 529 609 33,000 -360 Level Cleveland Center
04:47PM 39.5817 -79.9267 111° Southeast 532 612 32,400 -1,740 Descending Washington Center
04:48PM 39.5400 -79.7467 107° East 527 606 29,700 -2,520 Descending Washington Center
04:49PM 39.5081 -79.5781 104° East 512 589 27,400 -1,380 Descending Washington Center
04:50PM 39.4781 -79.4122 103° East 482 555 27,000 -960 Descending Washington Center
04:51PM 39.4569 -79.2847 102° East 467 537 25,500 -1,920 Descending Washington Center
04:52PM 39.4267 -79.1167 103° East 452 520 23,200 -2,160 Descending Washington Center
04:53PM 39.3994 -78.9756 104° East 423 487 21,200 -1,980 Descending Washington Center
04:54PM 39.3739 -78.8403 104° East 399 459 19,300 -1,740 Descending Washington Center
04:55PM 39.3506 -78.7078 103° East 387 445 17,800 -1,980 Descending Washington Center
04:56PM 39.3267 -78.5806 104° East 374 430 15,400 -2,160 Descending Washington Center
04:57PM 39.3025 -78.4508 103° East 374 430 13,500 -1,980 Descending Washington Center
04:58PM 39.2678 -78.3314 111° Southeast 364 419 11,500 -1,320 Descending Washington Center
04:59PM 39.2158 -78.2331 124° Southeast 346 398 10,900 -1,020 Descending Washington Center
05:00PM 39.1678 -78.1403 124° Southeast 327 376 9,500 -1,500 Descending Washington Center
05:01PM 39.1197 -78.0503 125° Southeast 315 362 7,900 -1,260 Descending Washington Center
05:02PM 39.0733 -77.9658 125° Southeast 296 341 7,000 -480 Descending Washington Center
05:03PM 39.0272 -77.8736 123° Southeast 291 335 7,000  Level Washington Center
05:04PM 38.9850 -77.7947 125° Southeast 286 329 7,000 -540 Level Washington Center
05:05PM 38.9594 -77.7006 109° East 273 314 6,000 -600 Descending Washington Center
05:06PM 38.9333 -77.6167 112° Southeast 281 323 5,900  Descending Potomac TRACON
05:07PM 38.8667 -77.5833 159° South 247 284 6,000 -480 Climbing Potomac TRACON
05:08PM 38.8167 -77.5333 142° Southeast 246 283 5,000 -1,380 Descending Potomac TRACON
05:09PM 38.8167 -77.4667 90° East 212 244 3,300 -1,500 Descending Potomac TRACON
05:10PM 38.8500 -77.4667 360° North 153 176 2,000 -1,080 Descending Potomac TRACON
05:11PM 38.9000 -77.4667 360° North 139 160 1,200 -840 Descending Potomac TRACON
05:13PM 38.9333 -77.4500 165° South  Level FlightAware Approximate
05:20PM 38.9474 -77.4599 165° South  Level Estimated
05:21PM 38.9474 -77.4599 165° South  Level Estimated
05:22PM 38.9474 -77.4599 165° South  Level Estimated
05:23PM 38.9474 -77.4599 165° South  Level Estimated